createdAt,value
2022-10-07T00:02:34.591Z,0.90
2022-10-07T00:07:36.484Z,0.95
2022-10-07T00:12:38.430Z,1.45
2022-10-07T00:17:40.279Z,1.15
2022-10-07T00:22:42.064Z,1.38
2022-10-07T00:27:44.036Z,0.90
2022-10-07T00:32:46.101Z,1.55
2022-10-07T00:37:48.087Z,1.00
2022-10-07T00:42:49.899Z,1.50
2022-10-07T00:47:52.075Z,0.95
2022-10-07T00:52:57.909Z,1.33
2022-10-07T00:58:03.150Z,1.17
2022-10-07T01:03:05.393Z,1.10
2022-10-07T01:08:07.921Z,0.70
2022-10-07T01:13:35.081Z,1.30
2022-10-07T01:18:53.944Z,1.15
2022-10-07T01:24:03.132Z,1.02
2022-10-07T01:29:29.761Z,1.20
2022-10-07T01:34:34.361Z,1.00
2022-10-07T01:39:43.026Z,1.00
2022-10-07T01:44:47.646Z,1.30
2022-10-07T01:49:49.548Z,1.00
2022-10-07T01:55:11.317Z,1.10
2022-10-07T02:00:14.749Z,1.00
2022-10-07T02:05:39.094Z,1.23
2022-10-07T02:10:43.057Z,1.10
2022-10-07T02:16:00.760Z,0.90
2022-10-07T02:21:06.920Z,1.17
2022-10-07T02:26:13.475Z,0.98
2022-10-07T02:31:18.286Z,0.98
2022-10-07T02:36:29.064Z,1.33
2022-10-07T02:41:41.938Z,1.17
2022-10-07T02:47:01.011Z,0.95
2022-10-07T02:52:18.495Z,1.58
2022-10-07T02:57:24.806Z,1.10
2022-10-07T03:02:38.047Z,1.63
2022-10-07T03:07:42.017Z,1.63
2022-10-07T03:12:45.601Z,1.63
2022-10-07T03:17:48.421Z,1.55
2022-10-07T03:22:51.008Z,1.35
2022-10-07T03:27:54.445Z,1.50
2022-10-07T03:32:57.431Z,1.80
2022-10-07T03:37:59.357Z,1.45
2022-10-07T03:43:02.562Z,1.17
2022-10-07T03:48:04.679Z,1.80
2022-10-07T03:53:08.166Z,1.60
2022-10-07T03:58:10.394Z,1.80
2022-10-07T04:03:14.593Z,2.13
2022-10-07T04:08:18.072Z,2.17
2022-10-07T04:13:20.203Z,2.17
2022-10-07T04:18:22.582Z,2.80
2022-10-07T04:23:27.523Z,2.20
2022-10-07T04:28:30.299Z,2.78
2022-10-07T04:33:42.286Z,2.80
2022-10-07T04:38:53.103Z,2.97
2022-10-07T04:44:00.936Z,2.75
2022-10-07T04:49:07.473Z,2.65
2022-10-07T04:54:09.574Z,2.90
2022-10-07T04:59:23.593Z,3.13
2022-10-07T05:04:27.917Z,3.05
2022-10-07T05:09:31.446Z,3.83
2022-10-07T05:14:35.284Z,3.20
2022-10-07T05:19:37.997Z,3.00
2022-10-07T05:24:39.956Z,3.08
2022-10-07T05:29:42.012Z,2.97
2022-10-07T05:34:47.298Z,2.72
2022-10-07T05:39:49.506Z,3.65
2022-10-07T05:44:55.049Z,3.03
2022-10-07T05:49:58.942Z,2.63
2022-10-07T05:55:02.396Z,2.95
2022-10-07T06:00:06.348Z,2.40
2022-10-07T06:05:16.369Z,2.53
2022-10-07T06:10:37.520Z,3.00
2022-10-07T06:15:39.960Z,2.88
2022-10-07T06:20:42.698Z,2.58
2022-10-07T06:26:13.627Z,3.28
2022-10-07T06:31:25.405Z,2.88
2022-10-07T06:36:32.940Z,2.53
2022-10-07T06:41:35.842Z,3.30
2022-10-07T06:46:59.644Z,3.08
2022-10-07T06:52:01.641Z,2.60
2022-10-07T06:57:15.621Z,2.28
2022-10-07T07:02:30.008Z,2.50
2022-10-07T07:07:34.452Z,2.40
2022-10-07T07:12:37.015Z,2.45
2022-10-07T07:17:38.912Z,2.10
2022-10-07T07:22:41.882Z,2.50
2022-10-07T07:27:46.567Z,4.85
2022-10-07T07:32:50.123Z,1.95
2022-10-07T07:37:53.760Z,1.75
2022-10-07T07:42:56.238Z,2.22
2022-10-07T07:48:00.158Z,1.70
2022-10-07T07:53:04.532Z,1.50
2022-10-07T07:58:11.643Z,1.48
2022-10-07T08:03:15.771Z,1.30
2022-10-07T08:08:18.540Z,1.60
2022-10-07T08:13:20.882Z,1.48
2022-10-07T08:18:24.598Z,1.60
2022-10-07T08:23:27.222Z,1.13
2022-10-07T08:28:29.282Z,1.10
2022-10-07T08:33:39.670Z,1.15
2022-10-07T08:38:42.469Z,1.17
2022-10-07T08:43:50.453Z,1.05
2022-10-07T08:49:00.090Z,1.02
2022-10-07T08:54:02.729Z,1.00
2022-10-07T08:59:13.366Z,1.42
2022-10-07T09:04:36.701Z,0.90
2022-10-07T09:09:44.798Z,1.17
2022-10-07T09:14:48.988Z,1.30
2022-10-07T09:19:56.802Z,1.00
2022-10-07T09:30:20.493Z,0.70
2022-10-07T09:35:25.801Z,0.88
2022-10-07T09:40:27.603Z,0.73
2022-10-07T09:45:33.436Z,0.82
2022-10-07T09:50:41.212Z,0.80
2022-10-07T09:55:45.303Z,0.95
2022-10-07T10:00:49.880Z,1.15
2022-10-07T10:06:01.642Z,1.02
2022-10-07T10:11:06.500Z,0.60
2022-10-07T10:16:34.460Z,0.70
2022-10-07T10:21:42.177Z,1.08
2022-10-07T10:26:46.563Z,1.15
2022-10-07T10:32:22.783Z,1.27
2022-10-07T10:37:46.302Z,1.20
2022-10-07T10:43:21.978Z,1.15
2022-10-07T10:48:29.307Z,1.38
2022-10-07T10:53:42.958Z,1.67
2022-10-07T10:59:34.789Z,1.35
2022-10-07T11:04:59.043Z,1.00
2022-10-07T11:10:18.271Z,1.23
2022-10-07T11:15:28.985Z,1.50
2022-10-07T11:20:38.832Z,1.20
2022-10-07T11:25:50.910Z,1.80
2022-10-07T11:31:05.649Z,1.65
2022-10-07T11:36:17.902Z,1.60
2022-10-07T11:41:32.401Z,1.90
2022-10-07T11:46:39.794Z,1.77
2022-10-07T11:52:43.556Z,1.55
2022-10-07T11:57:54.179Z,1.40
2022-10-07T12:03:18.903Z,1.40
2022-10-07T12:08:33.916Z,1.60
2022-10-07T12:13:38.455Z,1.35
2022-10-07T12:18:40.314Z,1.23
2022-10-07T12:23:44.204Z,1.35
2022-10-07T12:28:53.687Z,1.50
2022-10-07T12:34:09.273Z,1.33
2022-10-07T12:39:11.825Z,1.48
2022-10-07T12:44:32.119Z,1.60
2022-10-07T12:49:37.271Z,1.02
2022-10-07T12:54:47.701Z,0.98
2022-10-07T13:00:08.397Z,1.10
2022-10-07T13:05:37.574Z,0.93
2022-10-07T13:11:00.664Z,1.27
2022-10-07T13:16:14.587Z,1.33
2022-10-07T13:21:35.846Z,1.55
2022-10-07T13:26:43.655Z,1.08
2022-10-07T13:32:03.741Z,1.60
2022-10-07T13:37:29.714Z,0.98
2022-10-07T13:42:31.575Z,0.70
2022-10-07T13:47:34.022Z,0.90
2022-10-07T13:52:44.425Z,1.13
2022-10-07T13:57:46.960Z,1.00
2022-10-07T14:02:50.929Z,1.10
2022-10-07T14:08:11.350Z,1.20
2022-10-07T14:13:16.449Z,1.02
2022-10-07T14:18:18.596Z,0.93
2022-10-07T14:23:31.280Z,1.10
2022-10-07T14:28:35.709Z,1.10
2022-10-07T14:34:10.480Z,1.02
2022-10-07T14:39:32.827Z,1.13
2022-10-07T14:44:35.855Z,0.82
2022-10-07T14:49:37.827Z,1.30
2022-10-07T14:54:40.371Z,1.10
2022-10-07T14:59:42.328Z,1.30
2022-10-07T15:04:45.644Z,1.10
2022-10-07T15:09:48.568Z,1.52
2022-10-07T15:14:50.607Z,1.55
2022-10-07T15:19:53.132Z,1.30
2022-10-07T15:24:55.198Z,0.90
2022-10-07T15:29:57.099Z,1.30
2022-10-07T15:34:58.998Z,0.98
2022-10-07T15:40:01.155Z,1.10
2022-10-07T15:45:03.020Z,1.60
2022-10-07T15:50:06.029Z,1.42
2022-10-07T15:55:09.207Z,0.82
2022-10-07T16:00:11.727Z,1.58
2022-10-07T16:05:16.439Z,1.40
2022-10-07T16:10:18.261Z,1.60
2022-10-07T16:15:20.216Z,1.52
2022-10-07T16:20:22.032Z,1.35
2022-10-07T16:25:23.810Z,2.70
2022-10-07T16:30:51.648Z,2.35
2022-10-07T16:35:53.431Z,2.42
2022-10-07T16:40:55.415Z,3.00
2022-10-07T16:46:02.208Z,2.08
2022-10-07T16:51:04.407Z,2.73
2022-10-07T16:56:07.432Z,2.08
2022-10-07T17:01:12.739Z,2.42
2022-10-07T17:06:17.955Z,2.90
2022-10-07T17:11:30.425Z,2.40
2022-10-07T17:16:36.728Z,2.30
2022-10-07T17:21:40.887Z,2.67
2022-10-07T17:26:44.123Z,2.08
2022-10-07T17:31:50.292Z,1.58
2022-10-07T17:36:52.510Z,1.52
2022-10-07T17:41:54.352Z,1.45
2022-10-07T17:46:58.963Z,1.52
2022-10-07T17:52:00.880Z,1.77
2022-10-07T17:57:03.300Z,1.80
2022-10-07T18:02:05.659Z,1.98
2022-10-07T18:07:07.487Z,1.58
2022-10-07T18:12:27.748Z,1.65
2022-10-07T18:17:29.831Z,1.95
2022-10-07T18:22:34.418Z,2.03
2022-10-07T18:27:36.199Z,2.58
2022-10-07T18:32:38.060Z,3.30
2022-10-07T18:37:39.994Z,3.58
2022-10-07T18:42:42.111Z,4.43
2022-10-07T18:47:44.589Z,3.75
2022-10-07T18:52:46.934Z,3.50
2022-10-07T18:57:49.431Z,3.35
2022-10-07T19:02:51.617Z,3.78
2022-10-07T19:07:53.503Z,4.40
2022-10-07T19:13:17.218Z,3.78
2022-10-07T19:18:22.899Z,3.78
2022-10-07T19:23:28.946Z,4.18
2022-10-07T19:28:31.092Z,4.32
2022-10-07T19:33:34.281Z,5.10
2022-10-07T19:38:40.817Z,4.75
2022-10-07T19:43:43.892Z,4.10
2022-10-07T19:48:45.925Z,4.95
2022-10-07T19:53:48.064Z,4.78
2022-10-07T19:59:01.043Z,3.90
2022-10-07T20:04:04.393Z,4.32
2022-10-07T20:09:08.701Z,5.90
2022-10-07T20:14:10.933Z,4.05
2022-10-07T20:19:16.452Z,6.32
2022-10-07T20:24:18.478Z,6.00
2022-10-07T20:29:25.275Z,3.88
2022-10-07T20:34:27.709Z,3.35
2022-10-07T20:39:48.114Z,3.28
2022-10-07T20:44:52.240Z,3.72
2022-10-07T20:49:56.716Z,3.25
2022-10-07T20:54:58.840Z,3.70
2022-10-07T21:00:00.851Z,3.70
2022-10-07T21:05:02.658Z,3.47
2022-10-07T21:10:05.187Z,3.58
2022-10-07T21:15:07.573Z,2.58
2022-10-07T21:20:09.897Z,2.95
2022-10-07T21:25:11.992Z,2.60
2022-10-07T21:30:13.922Z,2.55
2022-10-07T21:35:15.652Z,2.95
2022-10-07T21:40:17.517Z,3.50
2022-10-07T21:45:19.382Z,3.03
2022-10-07T21:50:21.371Z,2.60
2022-10-07T21:55:23.532Z,2.88
2022-10-07T22:00:26.213Z,3.15
2022-10-07T22:05:27.987Z,2.67
2022-10-07T22:10:29.793Z,2.80
2022-10-07T22:15:36.866Z,2.72
2022-10-07T22:20:38.991Z,2.23
2022-10-07T22:25:40.778Z,1.90
2022-10-07T22:30:43.009Z,2.50
2022-10-07T22:35:44.854Z,3.17
2022-10-07T22:40:46.707Z,3.65
2022-10-07T22:45:57.136Z,2.63
2022-10-07T22:51:10.342Z,3.20
2022-10-07T22:56:14.958Z,2.83
2022-10-07T23:01:17.896Z,2.15
2022-10-07T23:06:19.921Z,2.63
2022-10-07T23:11:24.270Z,2.45
2022-10-07T23:16:29.691Z,2.20
2022-10-07T23:21:34.755Z,2.55
2022-10-07T23:26:37.338Z,1.90
2022-10-07T23:31:39.562Z,2.13
2022-10-07T23:36:41.608Z,2.08
2022-10-07T23:41:43.425Z,1.90
2022-10-07T23:46:45.373Z,2.40
2022-10-07T23:51:47.528Z,2.55
2022-10-07T23:56:49.561Z,2.35
